Time;durP1;ratioP1;P1;durP2;ratioP2;P2;SDS_P1;SDS_P2;PMS_P1;PMS_P2;Temp;Humidity;BMP_temperature;BMP_pressure;BME280_temperature;BME280_humidity;BME280_pressure;Samples;Min_cycle;Max_cycle;Signal;HPM_P1;HPM_P2
2023/02/01 00:02:10;;;;;;;;;;;;;;;;;;5072658;28;20322;-80
2023/02/01 00:04:36;;;;;;;;;;;;;;;;;;5074319;28;19962;-80
2023/02/01 00:07:02;;;;;;;;;;;;;;;;;;5074086;28;19934;-80
2023/02/01 00:09:28;;;;;;;;;;;;;;;;;;5073784;28;20304;-79
2023/02/01 00:11:54;;;;;;;;;;;;;;;;;;5074119;28;19912;-78
2023/02/01 00:14:19;;;;;;;;;;;;;;;;;;5074095;28;19955;-79
2023/02/01 00:16:45;;;;;;;;;;;;;;;;;;5073650;28;19912;-79
2023/02/01 00:19:11;;;;;;;;;;;;;;;;;;5072726;28;19908;-80
2023/02/01 00:21:37;;;;;;;;;;;;;;;;;;5073959;28;20284;-81
2023/02/01 00:24:03;;;;;;;;;;;;;;;;;;5073561;28;19947;-79
2023/02/01 00:26:29;;;;;;;;;;;;;;;;;;5073941;28;19908;-80
2023/02/01 00:28:55;;;;;;;;;;;;;;;;;;5072626;28;19908;-80
2023/02/01 00:31:21;;;;;;;;;;;;;;;;;;5073450;28;20266;-80
2023/02/01 00:33:47;;;;;;;;;;;;;;;;;;5073859;28;20323;-80
2023/02/01 00:36:13;;;;;;;;;;;;;;;;;;5073809;28;20323;-79
2023/02/01 00:38:39;;;;;;;;;;;;;;;;;;5073391;28;19908;-80
2023/02/01 00:41:05;;;;;;;;;;;;;;;;;;5072182;28;19925;-79
2023/02/01 00:43:31;;;;;;;;;;;;;;;;;;5073836;28;20012;-80
2023/02/01 00:45:57;;;;;;;;;;;;;;;;;;5073344;28;19908;-79
2023/02/01 00:48:23;;;;;;;;;;;;;;;;;;5073712;28;19983;-79
2023/02/01 00:50:48;;;;;;;;;;;;;;;;;;5072698;28;19908;-79
2023/02/01 00:53:14;;;;;;;;;;;;;;;;;;5072539;28;19913;-79
2023/02/01 00:55:40;;;;;;;;;;;;;;;;;;5073696;28;19948;-80
2023/02/01 00:58:09;;;;;;;;;;;;;;;;;;5073724;28;19962;-80
2023/02/01 01:00:35;;;;;;;;;;;;;;;;;;5073222;28;19958;-80
2023/02/01 01:03:00;;;;;;;;;;;;;;;;;;5073721;28;19917;-79
2023/02/01 01:05:27;;;;;;;;;;;;;;;;;;5073283;28;19916;-79
2023/02/01 01:07:53;;;;;;;;;;;;;;;;;;5073560;28;19908;-79
2023/02/01 01:10:19;;;;;;;;;;;;;;;;;;5073526;28;19931;-79
2023/02/01 01:12:45;;;;;;;;;;;;;;;;;;5073110;28;19916;-79
2023/02/01 01:15:11;;;;;;;;;;;;;;;;;;5072183;28;19908;-80
2023/02/01 01:17:37;;;;;;;;;;;;;;;;;;5073434;28;19917;-81
2023/02/01 01:20:03;;;;;;;;;;;;;;;;;;5073079;28;20007;-79
2023/02/01 01:22:29;;;;;;;;;;;;;;;;;;5073432;28;19963;-79
2023/02/01 01:24:55;;;;;;;;;;;;;;;;;;5073598;28;19908;-78
2023/02/01 01:27:23;;;;;;;;;;;;;;;;;;5073112;28;20019;-79
2023/02/01 01:29:49;;;;;;;;;;;;;;;;;;5073688;28;19995;-78
2023/02/01 01:32:15;;;;;;;;;;;;;;;;;;5073675;28;19958;-80
2023/02/01 01:34:41;;;;;;;;;;;;;;;;;;5073100;28;19908;-80
2023/02/01 01:37:07;;;;;;;;;;;;;;;;;;5073421;28;19912;-80
2023/02/01 01:39:33;;;;;;;;;;;;;;;;;;5073360;28;19909;-80
2023/02/01 01:41:59;;;;;;;;;;;;;;;;;;5072710;28;19924;-79
2023/02/01 01:44:25;;;;;;;;;;;;;;;;;;5073298;28;19908;-79
2023/02/01 01:46:51;;;;;;;;;;;;;;;;;;5073405;28;20352;-79
2023/02/01 01:49:17;;;;;;;;;;;;;;;;;;5075144;28;20340;-79
2023/02/01 01:51:43;;;;;;;;;;;;;;;;;;5075463;28;20409;-80
2023/02/01 01:54:09;;;;;;;;;;;;;;;;;;5076678;28;19947;-79
2023/02/01 02:02:04;;;;;;;;;;;;;;;;;;5076241;28;19924;-79
2023/02/01 02:04:30;;;;;;;;;;;;;;;;;;5076734;28;19909;-79
2023/02/01 02:06:56;;;;;;;;;;;;;;;;;;5077545;28;19908;-78
2023/02/01 02:09:22;;;;;;;;;;;;;;;;;;5075932;28;19934;-78
2023/02/01 02:11:48;;;;;;;;;;;;;;;;;;5076648;28;20001;-78
2023/02/01 02:14:14;;;;;;;;;;;;;;;;;;5076427;28;19916;-78
2023/02/01 02:16:40;;;;;;;;;;;;;;;;;;5074686;28;19909;-79
2023/02/01 02:19:06;;;;;;;;;;;;;;;;;;5076285;28;19908;-78
2023/02/01 02:21:31;;;;;;;;;;;;;;;;;;5076584;28;19924;-80
2023/02/01 02:23:57;;;;;;;;;;;;;;;;;;5075710;28;19912;-78
2023/02/01 02:26:23;;;;;;;;;;;;;;;;;;5076803;28;19944;-79
2023/02/01 02:28:49;;;;;;;;;;;;;;;;;;5081149;28;19934;-78
2023/02/01 02:31:15;;;;;;;;;;;;;;;;;;5077877;28;19908;-79
2023/02/01 02:33:41;;;;;;;;;;;;;;;;;;5079443;28;19956;-80
2023/02/01 02:36:07;;;;;;;;;;;;;;;;;;5076812;28;19909;-79
2023/02/01 02:38:33;;;;;;;;;;;;;;;;;;5077289;28;19930;-80
2023/02/01 02:40:59;;;;;;;;;;;;;;;;;;5077614;28;19931;-79
2023/02/01 02:48:54;;;;;;;;;;;;;;;;;;5097206;28;19930;-78
2023/02/01 03:05:03;;;;;;;;;;;;;;;;;;5074994;28;20383;-79
2023/02/01 03:07:29;;;;;;;;;;;;;;;;;;5074103;28;19908;-79
2023/02/01 03:09:55;;;;;;;;;;;;;;;;;;5073927;28;20012;-79
2023/02/01 03:15:06;;;;;;;;;;;;;;;;;;5075171;28;19978;-79
2023/02/01 03:17:32;;;;;;;;;;;;;;;;;;5075201;28;20284;-80
2023/02/01 03:19:57;;;;;;;;;;;;;;;;;;5075058;28;20285;-79
2023/02/01 03:22:23;;;;;;;;;;;;;;;;;;5074950;28;20383;-81
2023/02/01 03:24:49;;;;;;;;;;;;;;;;;;5074927;28;20343;-79
2023/02/01 03:27:15;;;;;;;;;;;;;;;;;;5074666;28;20361;-80
2023/02/01 03:29:41;;;;;;;;;;;;;;;;;;5074807;28;19995;-82
2023/02/01 03:32:09;;;;;;;;;;;;;;;;;;5074835;28;20303;-81
2023/02/01 03:34:35;;;;;;;;;;;;;;;;;;5074538;28;19999;-81
2023/02/01 03:37:01;;;;;;;;;;;;;;;;;;5074679;28;19956;-81
2023/02/01 03:39:26;;;;;;;;;;;;;;;;;;5074693;28;19909;-82
2023/02/01 03:41:52;;;;;;;;;;;;;;;;;;5072807;28;19925;-80
2023/02/01 03:44:19;;;;;;;;;;;;;;;;;;5073297;28;19974;-82
2023/02/01 03:46:45;;;;;;;;;;;;;;;;;;5074534;28;20376;-80
2023/02/01 03:49:11;;;;;;;;;;;;;;;;;;5074269;28;19947;-79
2023/02/01 03:51:36;;;;;;;;;;;;;;;;;;5074452;28;19908;-81
2023/02/01 03:54:02;;;;;;;;;;;;;;;;;;5074439;28;19913;-80
2023/02/01 03:56:28;;;;;;;;;;;;;;;;;;5074142;28;20007;-81
2023/02/01 03:59:00;;;;;;;;;;;;;;;;;;5074526;28;20392;-81
2023/02/01 04:01:26;;;;;;;;;;;;;;;;;;5072685;28;19920;-81
2023/02/01 04:03:52;;;;;;;;;;;;;;;;;;5074266;28;19928;-80
2023/02/01 04:06:18;;;;;;;;;;;;;;;;;;5074259;28;20343;-81
2023/02/01 04:08:44;;;;;;;;;;;;;;;;;;5073922;28;19947;-81
2023/02/01 04:11:10;;;;;;;;;;;;;;;;;;5072480;28;19908;-81
2023/02/01 04:13:36;;;;;;;;;;;;;;;;;;5074332;28;19909;-81
2023/02/01 04:16:02;;;;;;;;;;;;;;;;;;5072401;28;20003;-81
2023/02/01 04:18:28;;;;;;;;;;;;;;;;;;5074671;28;19916;-80
2023/02/01 04:20:54;;;;;;;;;;;;;;;;;;5073718;28;19920;-81
2023/02/01 04:23:20;;;;;;;;;;;;;;;;;;5073733;28;19915;-82
2023/02/01 04:25:46;;;;;;;;;;;;;;;;;;5074379;28;19916;-81
2023/02/01 04:28:12;;;;;;;;;;;;;;;;;;5073857;28;19913;-81
2023/02/01 04:30:38;;;;;;;;;;;;;;;;;;5073605;28;19908;-81
2023/02/01 04:33:07;;;;;;;;;;;;;;;;;;5072696;28;19909;-81
2023/02/01 04:35:33;;;;;;;;;;;;;;;;;;5073800;28;19967;-81
2023/02/01 04:37:59;;;;;;;;;;;;;;;;;;5073902;28;19912;-81
2023/02/01 04:40:25;;;;;;;;;;;;;;;;;;5073607;28;19916;-81
2023/02/01 04:42:51;;;;;;;;;;;;;;;;;;5073822;28;19916;-81
2023/02/01 04:45:17;;;;;;;;;;;;;;;;;;5072159;28;19991;-82
2023/02/01 04:47:43;;;;;;;;;;;;;;;;;;5073796;28;19954;-81
2023/02/01 04:50:10;;;;;;;;;;;;;;;;;;5073713;28;19908;-79
2023/02/01 04:52:36;;;;;;;;;;;;;;;;;;5073277;28;20253;-80
2023/02/01 04:55:02;;;;;;;;;;;;;;;;;;5073818;28;20001;-80
2023/02/01 04:57:28;;;;;;;;;;;;;;;;;;5073664;28;19908;-81
2023/02/01 04:59:54;;;;;;;;;;;;;;;;;;5073733;28;20437;-81
2023/02/01 05:02:20;;;;;;;;;;;;;;;;;;5073474;28;19924;-81
2023/02/01 05:04:46;;;;;;;;;;;;;;;;;;5073189;28;19916;-80
2023/02/01 05:07:12;;;;;;;;;;;;;;;;;;5073692;28;19912;-81
2023/02/01 05:09:38;;;;;;;;;;;;;;;;;;5073661;28;19914;-80
2023/02/01 05:14:48;;;;;;;;;;;;;;;;;;5073608;28;19915;-79
2023/02/01 05:17:14;;;;;;;;;;;;;;;;;;5073459;28;20331;-80
2023/02/01 05:19:40;;;;;;;;;;;;;;;;;;5071809;28;19908;-80
2023/02/01 05:22:06;;;;;;;;;;;;;;;;;;5073579;28;19986;-80
2023/02/01 05:24:32;;;;;;;;;;;;;;;;;;5076576;28;19958;-81
2023/02/01 05:26:58;;;;;;;;;;;;;;;;;;5076886;28;19909;-81
2023/02/01 05:29:24;;;;;;;;;;;;;;;;;;5075936;28;19908;-81
2023/02/01 05:31:50;;;;;;;;;;;;;;;;;;5077244;28;19912;-80
2023/02/01 05:34:16;;;;;;;;;;;;;;;;;;5076815;28;19951;-80
2023/02/01 05:36:42;;;;;;;;;;;;;;;;;;5077078;28;19912;-80
2023/02/01 05:39:08;;;;;;;;;;;;;;;;;;5076950;28;20326;-80
2023/02/01 05:41:34;;;;;;;;;;;;;;;;;;5076575;28;20388;-79
2023/02/01 05:44:00;;;;;;;;;;;;;;;;;;5076998;28;20348;-79
2023/02/01 05:46:26;;;;;;;;;;;;;;;;;;5077381;28;19908;-80
2023/02/01 05:48:52;;;;;;;;;;;;;;;;;;5076139;28;19954;-79
2023/02/01 05:51:18;;;;;;;;;;;;;;;;;;5076079;28;19908;-80
2023/02/01 05:53:43;;;;;;;;;;;;;;;;;;5077001;28;19909;-79
2023/02/01 05:56:09;;;;;;;;;;;;;;;;;;5075438;28;19909;-80
2023/02/01 05:58:35;;;;;;;;;;;;;;;;;;5077259;28;19909;-81
2023/02/01 06:01:01;;;;;;;;;;;;;;;;;;5077057;28;19979;-80
2023/02/01 06:03:27;;;;;;;;;;;;;;;;;;5076114;28;19909;-80
2023/02/01 06:05:53;;;;;;;;;;;;;;;;;;5074570;28;20277;-81
2023/02/01 06:08:19;;;;;;;;;;;;;;;;;;5074085;28;20357;-79
2023/02/01 06:10:45;;;;;;;;;;;;;;;;;;5093699;28;20420;-74
2023/02/01 06:13:11;;;;;;;;;;;;;;;;;;5096502;28;20356;-81
2023/02/01 06:15:37;;;;;;;;;;;;;;;;;;5104128;28;20360;-83
2023/02/01 06:18:03;;;;;;;;;;;;;;;;;;5116795;28;20382;-77
2023/02/01 06:20:29;;;;;;;;;;;;;;;;;;5093544;28;19912;-75
2023/02/01 06:22:55;;;;;;;;;;;;;;;;;;5084282;28;20076;-72
2023/02/01 06:25:21;;;;;;;;;;;;;;;;;;5092634;28;20274;-74
2023/02/01 06:27:47;;;;;;;;;;;;;;;;;;5092649;28;19927;-75
2023/02/01 06:30:15;;;;;;;;;;;;;;;;;;5090799;28;19916;-77
2023/02/01 06:32:41;;;;;;;;;;;;;;;;;;5090262;28;19924;-77
2023/02/01 06:35:08;;;;;;;;;;;;;;;;;;5092051;28;20098;-73
2023/02/01 06:37:34;;;;;;;;;;;;;;;;;;5082119;28;19916;-82
2023/02/01 06:40:00;;;;;;;;;;;;;;;;;;5091380;28;19966;-76
2023/02/01 06:42:26;;;;;;;;;;;;;;;;;;5088238;28;19924;-75
2023/02/01 06:44:52;;;;;;;;;;;;;;;;;;5083943;28;20275;-76
2023/02/01 06:47:17;;;;;;;;;;;;;;;;;;5091979;28;19991;-73
2023/02/01 06:49:43;;;;;;;;;;;;;;;;;;5090548;28;19989;-77
2023/02/01 06:52:09;;;;;;;;;;;;;;;;;;5092071;28;19908;-80
2023/02/01 06:54:37;;;;;;;;;;;;;;;;;;5090699;28;20014;-83
2023/02/01 06:57:03;;;;;;;;;;;;;;;;;;5090222;28;19920;-84
2023/02/01 06:59:29;;;;;;;;;;;;;;;;;;5092644;28;19916;-84
2023/02/01 07:01:54;;;;;;;;;;;;;;;;;;5076678;28;19918;-80
2023/02/01 07:04:20;;;;;;;;;;;;;;;;;;5084062;28;20006;-78
2023/02/01 07:06:46;;;;;;;;;;;;;;;;;;5088456;28;19919;-76
2023/02/01 07:09:13;;;;;;;;;;;;;;;;;;5093343;28;20422;-77
2023/02/01 07:11:42;;;;;;;;;;;;;;;;;;5093764;28;19912;-80
2023/02/01 07:14:08;;;;;;;;;;;;;;;;;;5091381;28;20007;-81
2023/02/01 07:16:34;;;;;;;;;;;;;;;;;;5091365;28;19998;-81
2023/02/01 07:19:01;;;;;;;;;;;;;;;;;;5091271;28;19923;-80
2023/02/01 07:21:27;;;;;;;;;;;;;;;;;;5090449;28;19920;-78
2023/02/01 07:23:53;;;;;;;;;;;;;;;;;;5090744;28;19912;-86
2023/02/01 07:26:19;;;;;;;;;;;;;;;;;;5091682;28;19908;-82
2023/02/01 07:28:46;;;;;;;;;;;;;;;;;;5090252;28;19915;-80
2023/02/01 07:31:13;;;;;;;;;;;;;;;;;;5086504;28;19963;-72
2023/02/01 07:33:39;;;;;;;;;;;;;;;;;;5090615;28;19962;-76
2023/02/01 07:36:05;;;;;;;;;;;;;;;;;;5089939;28;19948;-73
2023/02/01 07:38:31;;;;;;;;;;;;;;;;;;5091422;28;19970;-74
2023/02/01 07:40:58;;;;;;;;;;;;;;;;;;5090393;28;20372;-74
2023/02/01 07:43:24;;;;;;;;;;;;;;;;;;5091196;28;20428;-74
2023/02/01 07:45:50;;;;;;;;;;;;;;;;;;5081738;28;19919;-76
2023/02/01 07:48:16;;;;;;;;;;;;;;;;;;5081945;28;19916;-73
2023/02/01 07:50:42;;;;;;;;;;;;;;;;;;5080776;28;19912;-73
2023/02/01 07:53:07;;;;;;;;;;;;;;;;;;5086590;28;19908;-76
2023/02/01 07:55:34;;;;;;;;;;;;;;;;;;5091348;28;19958;-72
2023/02/01 07:58:00;;;;;;;;;;;;;;;;;;5092538;28;19912;-73
2023/02/01 08:03:10;;;;;;;;;;;;;;;;;;5095790;28;19920;-76
2023/02/01 08:05:36;;;;;;;;;;;;;;;;;;5092611;28;20369;-78
2023/02/01 08:08:02;;;;;;;;;;;;;;;;;;5086884;28;20527;-77
2023/02/01 08:10:28;;;;;;;;;;;;;;;;;;5081638;28;19916;-77
2023/02/01 08:12:54;;;;;;;;;;;;;;;;;;5080730;28;19921;-77
2023/02/01 08:15:20;;;;;;;;;;;;;;;;;;5089052;28;20645;-80
2023/02/01 08:17:46;;;;;;;;;;;;;;;;;;5083436;28;19917;-78
2023/02/01 08:20:13;;;;;;;;;;;;;;;;;;5085626;28;20265;-81
2023/02/01 08:22:39;;;;;;;;;;;;;;;;;;5081109;28;19964;-80
2023/02/01 08:25:05;;;;;;;;;;;;;;;;;;5089208;28;20538;-79
2023/02/01 08:27:31;;;;;;;;;;;;;;;;;;5089547;28;20426;-83
2023/02/01 08:29:57;;;;;;;;;;;;;;;;;;5091926;28;20367;-73
2023/02/01 08:32:23;;;;;;;;;;;;;;;;;;5091195;28;19916;-80
2023/02/01 08:34:48;;;;;;;;;;;;;;;;;;5091474;28;19913;-84
2023/02/01 08:37:14;;;;;;;;;;;;;;;;;;5085576;28;19916;-80
2023/02/01 08:39:43;;;;;;;;;;;;;;;;;;5110534;28;19900;-79
2023/02/01 08:44:53;;;;;;;;;;;;;;;;;;5102489;28;20029;-74
2023/02/01 08:47:19;;;;;;;;;;;;;;;;;;5089090;28;19991;-81
2023/02/01 08:49:46;;;;;;;;;;;;;;;;;;5092839;28;19912;-76
2023/02/01 08:52:12;;;;;;;;;;;;;;;;;;5095642;28;19923;-74
2023/02/01 08:54:40;;;;;;;;;;;;;;;;;;5087802;28;19927;-75
2023/02/01 08:57:05;;;;;;;;;;;;;;;;;;5088903;28;19916;-81
2023/02/01 08:59:31;;;;;;;;;;;;;;;;;;5094503;28;19999;-71
2023/02/01 09:01:57;;;;;;;;;;;;;;;;;;5095081;28;19920;-76
2023/02/01 09:04:23;;;;;;;;;;;;;;;;;;5088939;28;19919;-76
2023/02/01 09:06:49;;;;;;;;;;;;;;;;;;5093513;28;19966;-77
2023/02/01 09:09:15;;;;;;;;;;;;;;;;;;5097606;28;19912;-73
2023/02/01 09:11:41;;;;;;;;;;;;;;;;;;5094846;28;19912;-74
2023/02/01 09:14:07;;;;;;;;;;;;;;;;;;5087083;28;20026;-73
2023/02/01 09:16:33;;;;;;;;;;;;;;;;;;5091038;28;19912;-73
2023/02/01 09:18:59;;;;;;;;;;;;;;;;;;5091587;28;19956;-80
2023/02/01 09:21:25;;;;;;;;;;;;;;;;;;5092883;28;20627;-79
2023/02/01 09:23:51;;;;;;;;;;;;;;;;;;5084802;28;19957;-79
2023/02/01 09:26:17;;;;;;;;;;;;;;;;;;5093391;28;20357;-77
2023/02/01 09:28:43;;;;;;;;;;;;;;;;;;5089659;28;19916;-69
2023/02/01 09:31:09;;;;;;;;;;;;;;;;;;5094246;28;19951;-75
2023/02/01 09:33:35;;;;;;;;;;;;;;;;;;5103546;28;20364;-74
2023/02/01 09:36:01;;;;;;;;;;;;;;;;;;5098177;28;19956;-75
2023/02/01 09:38:27;;;;;;;;;;;;;;;;;;5093130;28;19916;-76
2023/02/01 09:40:53;;;;;;;;;;;;;;;;;;5092495;28;19932;-74
2023/02/01 09:43:19;;;;;;;;;;;;;;;;;;5093810;28;19965;-70
2023/02/01 09:45:45;;;;;;;;;;;;;;;;;;5091406;28;19975;-74
2023/02/01 09:48:12;;;;;;;;;;;;;;;;;;5091261;28;20002;-74
2023/02/01 09:50:38;;;;;;;;;;;;;;;;;;5094681;28;19912;-79
2023/02/01 09:53:04;;;;;;;;;;;;;;;;;;5093878;28;19941;-77
2023/02/01 09:55:29;;;;;;;;;;;;;;;;;;5092209;28;19926;-72
2023/02/01 09:57:56;;;;;;;;;;;;;;;;;;5093332;28;19914;-75
2023/02/01 10:00:22;;;;;;;;;;;;;;;;;;5093299;28;20375;-73
2023/02/01 10:02:48;;;;;;;;;;;;;;;;;;5085640;28;19969;-79
2023/02/01 10:05:14;;;;;;;;;;;;;;;;;;5095536;28;19912;-75
2023/02/01 10:07:40;;;;;;;;;;;;;;;;;;5092513;28;19924;-75
2023/02/01 10:10:07;;;;;;;;;;;;;;;;;;5093670;28;19912;-74
2023/02/01 10:12:33;;;;;;;;;;;;;;;;;;5093585;28;19969;-73
2023/02/01 10:14:59;;;;;;;;;;;;;;;;;;5102909;28;19922;-72
2023/02/01 10:17:25;;;;;;;;;;;;;;;;;;5092366;28;19908;-73
2023/02/01 10:19:51;;;;;;;;;;;;;;;;;;5094994;28;19908;-71
2023/02/01 10:22:17;;;;;;;;;;;;;;;;;;5089394;28;20391;-76
2023/02/01 10:24:43;;;;;;;;;;;;;;;;;;5089522;28;20411;-74
2023/02/01 10:27:09;;;;;;;;;;;;;;;;;;5092605;28;20405;-75
2023/02/01 10:29:35;;;;;;;;;;;;;;;;;;5093264;28;20016;-74
2023/02/01 10:32:01;;;;;;;;;;;;;;;;;;5103096;28;20279;-78
2023/02/01 10:34:27;;;;;;;;;;;;;;;;;;5094073;28;19995;-82
2023/02/01 10:36:52;;;;;;;;;;;;;;;;;;5085620;28;19920;-81
2023/02/01 10:39:18;;;;;;;;;;;;;;;;;;5090328;28;20375;-82
2023/02/01 10:41:44;;;;;;;;;;;;;;;;;;5089942;28;19924;-82
2023/02/01 10:44:10;;;;;;;;;;;;;;;;;;5091917;28;19944;-82
2023/02/01 10:46:36;;;;;;;;;;;;;;;;;;5089208;28;19912;-77
2023/02/01 10:49:07;;;;;;;;;;;;;;;;;;5095871;28;19941;-79
2023/02/01 10:51:36;;;;;;;;;;;;;;;;;;5084860;28;19916;-79
2023/02/01 10:54:05;;;;;;;;;;;;;;;;;;5082155;28;19947;-80
2023/02/01 10:56:35;;;;;;;;;;;;;;;;;;5084746;28;19923;-81
2023/02/01 10:59:04;;;;;;;;;;;;;;;;;;5084958;28;20010;-84
2023/02/01 11:01:33;;;;;;;;;;;;;;;;;;5070668;28;19921;-77
2023/02/01 11:04:03;;;;;;;;;;;;;;;;;;5087977;28;19962;-77
2023/02/01 11:06:33;;;;;;;;;;;;;;;;;;5088476;28;19916;-77
2023/02/01 11:09:01;;;;;;;;;;;;;;;;;;5086781;28;19916;-79
2023/02/01 11:11:30;;;;;;;;;;;;;;;;;;5070562;28;19973;-77
2023/02/01 11:13:57;;;;;;;;;;;;;;;;;;5087635;28;20325;-77
2023/02/01 11:18:07;;;;;;;;;;;;;;;;;;4790158;27;9518920;-78
2023/02/01 11:20:35;;;;;;;;;;;;;;;;;;5110731;28;19920;-77
2023/02/01 11:23:04;;;;;;;;;;;;;;;;;;5110318;28;20272;-78
2023/02/01 11:25:30;;;;;;;;;;;;;;;;;;5128034;28;19907;-82
2023/02/01 11:27:56;;;;;;;;;;;;;;;;;;5129516;28;19912;-82
2023/02/01 11:38:06;;;;;;;;;;;;;;;;;;5087060;27;20304;-72
2023/02/01 11:42:14;;;;;;;;;;;;;;;;;;4372875;27;21861497;-75
2023/02/01 11:46:45;;;;;;;;;;;;;;;;;;5107293;27;19922;-76
2023/02/01 12:01:00;;;;;;;;;;;;;;;;;;5103654;27;19922;-74
2023/02/01 12:10:03;;;;;;;;;;;;;;;;;;5125779;27;19912;-76
2023/02/01 12:17:44;;;;;;;;;;;;;;;;;;5146003;27;19921;-74
2023/02/01 12:20:10;;;;;;;;;;;;;;;;;;5146849;27;20006;-75
2023/02/01 12:36:43;;;;;;;;;;;;;;;;;;5088355;27;19924;-72
2023/02/01 12:41:26;;;;;;;;;;;;;;;;;;5082238;27;19925;-76
2023/02/01 12:44:58;;;;;;;;;;;;;;;;;;5062861;28;20449;-76
2023/02/01 12:49:47;;;;;;;;;;;;;;;;;;5111588;27;19916;-88
2023/02/01 12:52:53;;;;;;;;;;;;;;;;;;5102957;27;20311;-77
2023/02/01 12:56:37;;;;;;;;;;;;;;;;;;5107410;27;19919;-75
2023/02/01 12:59:03;;;;;;;;;;;;;;;;;;5107790;28;20390;-78
2023/02/01 13:03:41;;;;;;;;;;;;;;;;;;5097872;27;19920;-75
2023/02/01 13:06:07;;;;;;;;;;;;;;;;;;5100889;28;19972;-76
2023/02/01 13:08:33;;;;;;;;;;;;;;;;;;5090941;28;20404;-73
2023/02/01 13:12:35;;;;;;;;;;;;;;;;;;5086783;27;19931;-73
2023/02/01 13:15:33;;;;;;;;;;;;;;;;;;5087909;27;19916;-76
2023/02/01 13:17:59;;;;;;;;;;;;;;;;;;5080616;28;20003;-71
2023/02/01 13:21:50;;;;;;;;;;;;;;;;;;5109764;27;20007;-73
2023/02/01 13:24:51;;;;;;;;;;;;;;;;;;5129186;27;19918;-73
2023/02/01 13:28:02;;;;;;;;;;;;;;;;;;5108380;27;19912;-74
2023/02/01 13:31:21;;;;;;;;;;;;;;;;;;5087599;28;19917;-73
2023/02/01 13:35:47;;;;;;;;;;;;;;;;;;5108550;27;19926;-72
2023/02/01 13:38:13;;;;;;;;;;;;;;;;;;5107142;28;19916;-72
2023/02/01 13:44:29;;;;;;;;;;;;;;;;;;5108921;27;19916;-76
2023/02/01 13:49:24;;;;;;;;;;;;;;;;;;5110305;27;20402;-83
2023/02/01 13:53:28;;;;;;;;;;;;;;;;;;5068975;28;19935;-83
2023/02/01 13:55:54;;;;;;;;;;;;;;;;;;5065835;28;20022;-80
2023/02/01 13:58:20;;;;;;;;;;;;;;;;;;5056003;28;19913;-81
2023/02/01 14:01:47;;;;;;;;;;;;;;;;;;5109422;27;19916;-81
2023/02/01 14:04:46;;;;;;;;;;;;;;;;;;5089238;27;19913;-82
2023/02/01 14:09:10;;;;;;;;;;;;;;;;;;5109524;27;19916;-82
2023/02/01 14:14:36;;;;;;;;;;;;;;;;;;5110848;27;19916;-83
2023/02/01 14:20:48;;;;;;;;;;;;;;;;;;5112060;27;19919;-84
2023/02/01 14:23:13;;;;;;;;;;;;;;;;;;5112066;28;20360;-84
2023/02/01 14:25:39;;;;;;;;;;;;;;;;;;5112175;28;19962;-81
2023/02/01 14:29:27;;;;;;;;;;;;;;;;;;5112419;27;19918;-84
2023/02/01 14:33:00;;;;;;;;;;;;;;;;;;5112800;27;19950;-83
2023/02/01 14:35:26;;;;;;;;;;;;;;;;;;5111452;28;20007;-82
2023/02/01 14:38:51;;;;;;;;;;;;;;;;;;5112622;27;20292;-85
2023/02/01 14:43:16;;;;;;;;;;;;;;;;;;5111549;27;20406;-81
2023/02/01 14:47:35;;;;;;;;;;;;;;;;;;5072184;28;20264;-83
2023/02/01 14:56:04;;;;;;;;;;;;;;;;;;5135776;27;19950;-84
2023/02/01 15:04:18;;;;;;;;;;;;;;;;;;5113981;27;20356;-84
2023/02/01 15:11:39;;;;;;;;;;;;;;;;;;5072001;28;19923;-83
2023/02/01 15:14:05;;;;;;;;;;;;;;;;;;5072014;28;20074;-83
2023/02/01 15:16:32;;;;;;;;;;;;;;;;;;5071565;28;19909;-83
2023/02/01 15:20:52;;;;;;;;;;;;;;;;;;5113716;27;19916;-85
2023/02/01 15:27:20;;;;;;;;;;;;;;;;;;5113871;27;19916;-86
2023/02/01 15:32:02;;;;;;;;;;;;;;;;;;5113422;27;19922;-87
2023/02/01 15:34:28;;;;;;;;;;;;;;;;;;5113337;28;19912;-86
2023/02/01 15:36:54;;;;;;;;;;;;;;;;;;5117366;28;19915;-85
2023/02/01 15:42:45;;;;;;;;;;;;;;;;;;5113628;27;19926;-86
2023/02/01 15:45:11;;;;;;;;;;;;;;;;;;5111155;28;19998;-84
2023/02/01 15:47:40;;;;;;;;;;;;;;;;;;5112813;28;19908;-85
2023/02/01 15:50:07;;;;;;;;;;;;;;;;;;5112472;28;19912;-85
2023/02/01 15:52:33;;;;;;;;;;;;;;;;;;5112735;28;19908;-86
2023/02/01 15:54:59;;;;;;;;;;;;;;;;;;5112879;28;19915;-86
2023/02/01 15:57:30;;;;;;;;;;;;;;;;;;5112518;28;19919;-85
2023/02/01 15:59:56;;;;;;;;;;;;;;;;;;5112089;28;19908;-86
2023/02/01 16:02:22;;;;;;;;;;;;;;;;;;5111968;28;20045;-84
2023/02/01 16:04:50;;;;;;;;;;;;;;;;;;5112158;28;19961;-84
2023/02/01 16:07:16;;;;;;;;;;;;;;;;;;5111768;28;19950;-84
2023/02/01 16:09:42;;;;;;;;;;;;;;;;;;5112063;28;19961;-85
2023/02/01 16:12:08;;;;;;;;;;;;;;;;;;5111017;28;19915;-84
2023/02/01 16:14:34;;;;;;;;;;;;;;;;;;5111607;28;19915;-85
2023/02/01 16:17:00;;;;;;;;;;;;;;;;;;5111917;28;19915;-83
2023/02/01 16:19:27;;;;;;;;;;;;;;;;;;5112032;28;19908;-84
2023/02/01 16:21:53;;;;;;;;;;;;;;;;;;5110227;28;19999;-84
2023/02/01 16:24:22;;;;;;;;;;;;;;;;;;5111511;28;20044;-84
2023/02/01 16:26:47;;;;;;;;;;;;;;;;;;5110899;28;19916;-83
2023/02/01 16:29:15;;;;;;;;;;;;;;;;;;5111157;28;20006;-84
2023/02/01 16:31:41;;;;;;;;;;;;;;;;;;5111369;28;19908;-84
2023/02/01 16:34:07;;;;;;;;;;;;;;;;;;5109679;28;19915;-83
2023/02/01 16:36:33;;;;;;;;;;;;;;;;;;5111227;28;19961;-86
2023/02/01 16:38:59;;;;;;;;;;;;;;;;;;5111518;28;19998;-85
2023/02/01 16:41:25;;;;;;;;;;;;;;;;;;5110718;28;20015;-85
2023/02/01 16:43:51;;;;;;;;;;;;;;;;;;5110031;28;20037;-85
2023/02/01 16:46:19;;;;;;;;;;;;;;;;;;5111801;28;19915;-84
2023/02/01 16:48:45;;;;;;;;;;;;;;;;;;5109741;28;19918;-85
2023/02/01 16:51:11;;;;;;;;;;;;;;;;;;5113582;28;20398;-83
2023/02/01 16:53:37;;;;;;;;;;;;;;;;;;5101551;28;19912;-86
2023/02/01 16:56:03;;;;;;;;;;;;;;;;;;5097263;28;19915;-85
2023/02/01 16:58:29;;;;;;;;;;;;;;;;;;5097292;28;20267;-85
2023/02/01 17:00:55;;;;;;;;;;;;;;;;;;5099661;28;20015;-84
2023/02/01 17:03:21;;;;;;;;;;;;;;;;;;5099507;28;19915;-85
2023/02/01 17:05:47;;;;;;;;;;;;;;;;;;5097347;28;20356;-84
2023/02/01 17:08:13;;;;;;;;;;;;;;;;;;5096017;28;19931;-83
2023/02/01 17:10:39;;;;;;;;;;;;;;;;;;5095928;28;20403;-84
2023/02/01 17:13:05;;;;;;;;;;;;;;;;;;5097273;28;19912;-84
2023/02/01 17:15:33;;;;;;;;;;;;;;;;;;5096783;28;19954;-84
2023/02/01 17:18:01;;;;;;;;;;;;;;;;;;5096546;28;19908;-84
2023/02/01 17:20:27;;;;;;;;;;;;;;;;;;5096801;28;20288;-83
2023/02/01 17:22:53;;;;;;;;;;;;;;;;;;5096781;28;19919;-84
2023/02/01 17:25:20;;;;;;;;;;;;;;;;;;5096833;28;20307;-85
2023/02/01 17:27:46;;;;;;;;;;;;;;;;;;5096926;28;19908;-85
2023/02/01 17:30:12;;;;;;;;;;;;;;;;;;5096268;28;19915;-84
2023/02/01 17:32:38;;;;;;;;;;;;;;;;;;5096716;28;19947;-86
2023/02/01 17:35:04;;;;;;;;;;;;;;;;;;5096688;28;19908;-85
2023/02/01 17:37:30;;;;;;;;;;;;;;;;;;5096080;28;19995;-85
2023/02/01 17:39:56;;;;;;;;;;;;;;;;;;5096623;28;19989;-85
2023/02/01 17:42:22;;;;;;;;;;;;;;;;;;5096114;28;19920;-84
2023/02/01 17:44:48;;;;;;;;;;;;;;;;;;5095963;28;19915;-83
2023/02/01 17:47:14;;;;;;;;;;;;;;;;;;5096189;28;19947;-83
2023/02/01 17:49:40;;;;;;;;;;;;;;;;;;5096129;28;19908;-83
2023/02/01 17:52:06;;;;;;;;;;;;;;;;;;5095643;28;19908;-84
2023/02/01 17:54:32;;;;;;;;;;;;;;;;;;5096231;28;20007;-84
2023/02/01 17:56:59;;;;;;;;;;;;;;;;;;5096371;28;19908;-84
2023/02/01 17:59:25;;;;;;;;;;;;;;;;;;5095997;28;19912;-82
2023/02/01 18:01:52;;;;;;;;;;;;;;;;;;5095744;28;19917;-82
2023/02/01 18:04:17;;;;;;;;;;;;;;;;;;5092923;28;19915;-83
2023/02/01 18:06:44;;;;;;;;;;;;;;;;;;5097633;28;20292;-83
2023/02/01 18:09:10;;;;;;;;;;;;;;;;;;5097309;28;19908;-82
2023/02/01 18:11:35;;;;;;;;;;;;;;;;;;5095202;28;19908;-84
2023/02/01 18:14:01;;;;;;;;;;;;;;;;;;5095831;28;19989;-82
2023/02/01 18:16:27;;;;;;;;;;;;;;;;;;5094610;28;20276;-83
2023/02/01 18:18:53;;;;;;;;;;;;;;;;;;5095372;28;20430;-84
2023/02/01 18:21:20;;;;;;;;;;;;;;;;;;5093692;28;20419;-83
2023/02/01 18:23:46;;;;;;;;;;;;;;;;;;5095788;28;20298;-83
2023/02/01 18:26:11;;;;;;;;;;;;;;;;;;5097829;28;19948;-82
2023/02/01 18:28:38;;;;;;;;;;;;;;;;;;5095661;28;20320;-85
2023/02/01 18:31:04;;;;;;;;;;;;;;;;;;5095666;28;19912;-83
2023/02/01 18:33:30;;;;;;;;;;;;;;;;;;5094960;28;20264;-83
2023/02/01 18:35:56;;;;;;;;;;;;;;;;;;5095239;28;19908;-82
2023/02/01 18:38:22;;;;;;;;;;;;;;;;;;5095250;28;19908;-82
2023/02/01 18:40:48;;;;;;;;;;;;;;;;;;5096942;28;20285;-83
2023/02/01 18:43:14;;;;;;;;;;;;;;;;;;5097639;28;19908;-82
2023/02/01 18:45:40;;;;;;;;;;;;;;;;;;5095789;28;20420;-82
2023/02/01 18:48:06;;;;;;;;;;;;;;;;;;5094773;28;19991;-81
2023/02/01 18:50:32;;;;;;;;;;;;;;;;;;5095043;28;19959;-83
2023/02/01 18:52:58;;;;;;;;;;;;;;;;;;5093657;28;20367;-83
2023/02/01 18:55:24;;;;;;;;;;;;;;;;;;5093611;28;19915;-82
2023/02/01 18:57:50;;;;;;;;;;;;;;;;;;5094892;28;20007;-82
2023/02/01 19:00:16;;;;;;;;;;;;;;;;;;5094713;28;19912;-82
2023/02/01 19:02:42;;;;;;;;;;;;;;;;;;5094446;28;19916;-82
2023/02/01 19:05:08;;;;;;;;;;;;;;;;;;5094466;28;19988;-82
2023/02/01 19:07:35;;;;;;;;;;;;;;;;;;5094164;28;19995;-83
2023/02/01 19:10:01;;;;;;;;;;;;;;;;;;5094540;28;19908;-84
2023/02/01 19:12:27;;;;;;;;;;;;;;;;;;5095529;28;20002;-82
2023/02/01 19:14:53;;;;;;;;;;;;;;;;;;5095879;28;20363;-83
2023/02/01 19:17:19;;;;;;;;;;;;;;;;;;5092781;28;19931;-83